Terminal Aerodrome Forecast
Issued by NWS

Home | Current Version | Previous Version | Text Only | Print | Product List | Glossary Off
Versions: 1 2 3 4 5 6 7 8 9 10 11 12 13 14 15
000 FTUS41 KBOX 251125 TAFBAF TAF KBAF 251125Z 2512/2612 32006KT P6SM SCT200 FM251600 30007KT P6SM FEW050 FM251900 26008KT P6SM FEW050 FM252300 21004KT P6SM BKN050 FM260500 23004KT P6SM SCT250=

USA.gov is the U.S. government's official web portal to all federal, state and local government web resources and services.